< < Back
Terminal Aerodrome Forecast


Current Version              Previous Versions:   1  2  3  4  5  6  7  8  9  

Terminal Aerodrome Forecast

573
FTUS42 KJAX 222212 AAA
TAFSSI
TAF AMD
KSSI 222212Z 2222/2318 07011G18KT P6SM SCT025 BKN035
      TEMPO 2222/2224 BKN025
     FM230100 06010KT P6SM SCT030 SCT100 BKN200
     FM231400 06014G21KT P6SM SCT020 SCT040=

Latest METAR

N/A

USA.gov is the U.S. government's official web portal to all federal, state and local government web resources and services.